Time;durP1;ratioP1;P1;durP2;ratioP2;P2;SDS_P1;SDS_P2;PMS_P1;PMS_P2;Temp;Humidity;BMP_temperature;BMP_pressure;BME280_temperature;BME280_humidity;BME280_pressure;Samples;Min_cycle;Max_cycle;Signal;HPM_P1;HPM_P2
2023/10/13 00:01:06;;;;;;;9.95;4.72;;;;;;;15.49;100.00;99237.97;5140977;28;20051;-92
2023/10/13 00:03:33;;;;;;;12.18;5.55;;;;;;;15.37;100.00;99235.75;5144406;28;20068;-94
2023/10/13 00:06:03;;;;;;;9.68;4.13;;;;;;;15.28;100.00;99220.91;5143804;27;20047;-93
2023/10/13 00:08:29;;;;;;;11.85;4.82;;;;;;;15.51;100.00;99273.63;5149212;22;20052;-93
2023/10/13 00:10:59;;;;;;;12.25;4.47;;;;;;;15.59;100.00;99321.56;5082080;28;20044;-93
2023/10/13 00:13:29;;;;;;;14.85;5.60;;;;;;;15.71;100.00;99323.81;5082043;28;20055;-94
2023/10/13 00:15:58;;;;;;;10.80;4.00;;;;;;;15.46;100.00;99282.78;5082323;28;20068;-94
2023/10/13 00:18:27;;;;;;;10.23;5.00;;;;;;;15.29;100.00;99254.84;5081804;28;20044;-93
2023/10/13 00:20:56;;;;;;;8.88;4.13;;;;;;;15.70;100.00;99330.09;5083789;28;20048;-93
2023/10/13 00:23:26;;;;;;;11.23;4.78;;;;;;;15.24;100.00;99261.28;5080238;28;20498;-93
2023/10/13 00:25:56;;;;;;;10.15;4.00;;;;;;;15.13;100.00;99261.69;5080162;28;20052;-93
2023/10/13 00:28:24;;;;;;;11.68;4.65;;;;;;;14.94;100.00;99248.13;5082644;28;20045;-93
2023/10/13 00:31:00;;;;;;;13.13;4.72;;;;;;;15.21;100.00;99281.03;5082366;28;20104;-94
2023/10/13 00:33:28;;;;;;;9.07;3.80;;;;;;;15.16;100.00;99245.53;5081903;28;20043;-95
2023/10/13 00:35:57;;;;;;;9.10;4.47;;;;;;;15.02;100.00;99243.34;5071162;28;20037;-94
2023/10/13 00:38:24;;;;;;;10.52;3.90;;;;;;;15.26;100.00;99271.00;5068077;28;20061;-93
2023/10/13 00:40:54;;;;;;;9.93;4.05;;;;;;;15.57;100.00;99323.44;5068342;28;20067;-93
2023/10/13 00:46:13;;;;;;;8.55;4.05;;;;;;;15.31;100.00;99301.19;5200675;27;20390;-94
2023/10/13 00:48:43;;;;;;;10.30;4.65;;;;;;;15.17;100.00;99309.75;5164843;27;20023;-94
2023/10/13 00:51:18;;;;;;;9.35;3.90;;;;;;;15.14;100.00;99288.44;5164981;27;20043;-93
2023/10/13 00:53:47;;;;;;;9.85;4.25;;;;;;;15.13;100.00;99277.78;5165141;27;20118;-94
2023/10/13 00:56:23;;;;;;;9.05;4.07;;;;;;;15.12;100.00;99276.03;5145021;27;20054;-94
2023/10/13 00:58:52;;;;;;;9.52;3.70;;;;;;;14.89;100.00;99250.97;5164732;27;20043;-94
2023/10/13 01:01:21;;;;;;;13.35;3.92;;;;;;;15.17;100.00;99292.78;5164647;27;20027;-94
2023/10/13 01:03:49;;;;;;;7.80;3.70;;;;;;;14.87;100.00;99236.75;5165155;27;20047;-93
2023/10/13 01:06:20;;;;;;;9.30;4.68;;;;;;;14.79;100.00;99222.81;5153372;27;20035;-94
2023/10/13 01:08:50;;;;;;;9.35;3.55;;;;;;;14.91;100.00;99237.53;5153882;27;20092;-93
2023/10/13 01:11:18;;;;;;;10.10;3.97;;;;;;;14.84;100.00;99231.53;5157627;27;20040;-93
2023/10/13 01:13:47;;;;;;;9.65;4.40;;;;;;;14.85;100.00;99240.44;5153100;27;20039;-94
2023/10/13 01:16:13;;;;;;;12.18;4.43;;;;;;;15.05;100.00;99272.72;5162654;27;20039;-93
2023/10/13 01:18:48;;;;;;;11.18;4.95;;;;;;;14.81;100.00;99234.31;5163698;27;20039;-95
2023/10/13 01:21:16;;;;;;;10.52;4.97;;;;;;;14.76;100.00;99230.94;5164148;27;20039;-95
2023/10/13 01:23:45;;;;;;;9.98;4.57;;;;;;;15.03;100.00;99263.84;5164213;27;20039;-94
2023/10/13 01:26:17;;;;;;;12.50;4.72;;;;;;;14.96;100.00;99251.59;5164947;27;20045;-93
2023/10/13 01:28:46;;;;;;;11.77;4.32;;;;;;;14.80;100.00;99229.88;5144271;27;20044;-93
2023/10/13 01:31:24;;;;;;;12.18;5.70;;;;;;;14.81;100.00;99239.66;5164316;27;20091;-93
2023/10/13 01:33:53;;;;;;;10.25;4.03;;;;;;;14.68;100.00;99233.00;5160121;27;20511;-92
2023/10/13 01:36:20;;;;;;;10.95;4.93;;;;;;;15.09;100.00;99286.84;5162755;27;20047;-93
2023/10/13 01:38:48;;;;;;;10.55;5.38;;;;;;;14.87;100.00;99244.78;5158890;27;20036;-93
2023/10/13 01:41:14;;;;;;;12.73;4.53;;;;;;;15.09;100.00;99276.13;5152651;27;20073;-93
2023/10/13 01:43:40;;;;;;;8.68;4.07;;;;;;;14.81;100.00;99220.91;5143900;27;20405;-92
2023/10/13 01:46:08;;;;;;;11.40;4.70;;;;;;;15.08;100.00;99279.75;5162205;27;20046;-93
2023/10/13 01:48:38;;;;;;;11.00;4.07;;;;;;;14.65;100.00;99223.28;5162520;27;20039;-94
2023/10/13 01:51:06;;;;;;;7.38;4.15;;;;;;;14.98;100.00;99290.81;5162049;27;20062;-93
2023/10/13 01:53:32;;;;;;;8.43;4.05;;;;;;;14.71;100.00;99231.09;5157096;27;20039;-93
2023/10/13 01:56:05;;;;;;;12.70;4.13;;;;;;;15.03;100.00;99292.41;5157398;27;20145;-93
2023/10/13 01:58:31;;;;;;;10.55;5.05;;;;;;;14.64;100.00;99245.66;5148875;27;20039;-92
2023/10/13 02:00:59;;;;;;;9.43;4.32;;;;;;;14.56;100.00;99231.66;5144306;27;20558;-92
2023/10/13 02:03:29;;;;;;;9.38;4.22;;;;;;;14.57;100.00;99228.03;5137088;27;20040;-92
2023/10/13 02:05:58;;;;;;;8.57;4.05;;;;;;;14.91;100.00;99316.06;5144483;27;20078;-94
2023/10/13 02:11:25;;;;;;;10.00;4.60;;;;;;;14.69;100.00;99288.31;5143316;27;20135;-94
2023/10/13 02:13:53;;;;;;;11.50;4.47;;;;;;;14.43;100.00;99247.25;5143075;28;20047;-93
2023/10/13 02:16:39;;;;;;;15.23;4.88;;;;;;;14.37;100.00;99252.81;5149123;28;20039;-94
2023/10/13 02:19:05;;;;;;;10.73;4.30;;;;;;;14.38;100.00;99263.47;5153149;28;20040;-94
2023/10/13 02:21:39;;;;;;;8.35;4.00;;;;;;;14.45;100.00;99280.19;5151972;27;20059;-93
2023/10/13 02:24:12;;;;;;;14.45;4.10;;;;;;;14.35;100.00;99260.88;5141619;28;20045;-94
2023/10/13 02:26:40;;;;;;;8.35;4.60;;;;;;;14.21;100.00;99252.47;5141209;28;20040;-92
2023/10/13 02:29:08;;;;;;;10.90;4.40;;;;;;;14.43;100.00;99289.19;5141583;28;20043;-93
2023/10/13 02:31:37;;;;;;;9.15;4.40;;;;;;;14.60;100.00;99313.59;5140548;28;20040;-93
2023/10/13 02:34:12;;;;;;;;;;;;;;;14.61;100.00;99319.81;5140553;28;20040;-93
2023/10/13 02:39:42;;;;;;;9.35;4.15;;;;;;;14.08;100.00;99241.31;5200639;27;20362;-94
2023/10/13 02:42:08;;;;;;;8.70;4.45;;;;;;;14.30;100.00;99288.72;5164170;27;20130;-94
2023/10/13 02:44:36;;;;;;;10.50;4.07;;;;;;;14.07;100.00;99244.88;5167076;27;20391;-93
2023/10/13 02:47:19;;;;;;;9.70;3.80;;;;;;;14.32;100.00;99289.56;5169224;27;20046;-92
2023/10/13 02:49:50;;;;;;;12.65;5.30;;;;;;;14.27;100.00;99296.84;5166374;27;20073;-93
2023/10/13 02:52:16;;;;;;;9.82;4.40;;;;;;;14.25;100.00;99296.91;5163184;27;20035;-93
2023/10/13 02:54:47;;;;;;;9.02;4.40;;;;;;;14.00;100.00;99238.00;5160007;27;20046;-93
2023/10/13 02:57:15;;;;;;;8.80;3.72;;;;;;;14.23;100.00;99273.81;5165519;27;20160;-93
2023/10/13 03:03:16;;;;;;;11.23;4.72;;;;;;;13.89;100.00;99246.38;5104330;27;20404;-92
2023/10/13 03:05:42;;;;;;;11.07;5.18;;;;;;;13.74;100.00;99241.53;5102431;28;20054;-91
2023/10/13 03:08:10;;;;;;;10.32;5.85;;;;;;;14.03;100.00;99288.75;5106590;28;20409;-93
2023/10/13 03:10:45;;;;;;;14.75;5.93;;;;;;;13.79;100.00;99236.03;5134377;28;20143;-93
2023/10/13 03:13:11;;;;;;;7.90;3.80;;;;;;;13.85;100.00;99235.84;5085746;28;20044;-93
2023/10/13 03:15:37;;;;;;;13.27;4.35;;;;;;;14.28;100.00;99307.50;5100362;28;20043;-94
2023/10/13 03:18:03;;;;;;;8.68;4.80;;;;;;;13.84;100.00;99232.31;5119667;28;20107;-92
2023/10/13 03:20:32;;;;;;;9.73;4.38;;;;;;;13.79;100.00;99217.34;5109925;28;20051;-94
2023/10/13 03:22:58;;;;;;;9.45;4.30;;;;;;;14.01;100.00;99277.22;5104516;28;20045;-94
2023/10/13 03:25:42;;;;;;;9.93;4.43;;;;;;;13.77;100.00;99242.34;5121745;28;20084;-94
2023/10/13 03:28:13;;;;;;;11.40;4.63;;;;;;;13.62;100.00;99224.13;5103725;28;20067;-93
2023/10/13 03:30:41;;;;;;;11.50;5.13;;;;;;;13.74;100.00;99241.53;5101963;28;20031;-94
2023/10/13 03:33:12;;;;;;;10.38;4.25;;;;;;;13.63;100.00;99227.66;5101981;28;20185;-94
2023/10/13 03:35:52;;;;;;;9.55;4.20;;;;;;;13.61;100.00;99226.84;5101351;28;20040;-94
2023/10/13 03:38:18;;;;;;;12.13;5.25;;;;;;;14.00;100.00;99280.78;5101994;28;20097;-94
2023/10/13 03:40:48;;;;;;;9.63;5.43;;;;;;;13.91;100.00;99262.38;5100764;28;20119;-93
2023/10/13 03:43:16;;;;;;;;;;;;;;;14.13;100.00;99303.53;5101443;28;20040;-94
2023/10/13 03:45:44;;;;;;;11.82;5.63;;;;;;;13.58;100.00;99222.47;5119407;28;20311;-93
2023/10/13 03:48:27;;;;;;;10.27;4.93;;;;;;;13.66;100.00;99220.44;5101900;28;20048;-94
2023/10/13 03:51:17;;;;;;;14.82;4.97;;;;;;;13.65;100.00;99216.00;5102285;28;20044;-94
2023/10/13 03:53:52;;;;;;;11.07;4.18;;;;;;;13.93;100.00;99287.28;5086778;28;20044;-95
2023/10/13 03:56:26;;;;;;;11.60;4.55;;;;;;;13.65;100.00;99255.22;5086685;28;20037;-94
2023/10/13 03:58:56;;;;;;;8.95;4.25;;;;;;;13.47;100.00;99227.28;5101526;28;20040;-94
2023/10/13 04:07:41;;;;;;;10.10;4.72;;;;;;;13.61;100.00;99257.09;5104074;27;20404;-95
2023/10/13 04:19:09;;;;;;;13.15;5.10;;;;;;;13.34;100.00;99254.38;5145654;27;20392;-95
2023/10/13 04:30:27;;;;;;;9.15;4.53;;;;;;;13.15;100.00;99239.78;5124242;27;20387;-94
2023/10/13 04:35:47;;;;;;;10.45;4.45;;;;;;;13.49;100.00;99300.25;5110493;28;20040;-94
2023/10/13 04:38:32;;;;;;;11.40;4.97;;;;;;;13.20;100.00;99242.31;5124325;28;20078;-94
2023/10/13 04:41:01;;;;;;;8.55;4.25;;;;;;;13.19;100.00;99236.09;5124374;28;20238;-94
2023/10/13 04:43:55;;;;;;;10.80;4.43;;;;;;;13.15;100.00;99242.47;5123041;28;20048;-94
2023/10/13 04:46:25;;;;;;;16.13;5.15;;;;;;;13.24;100.00;99268.88;5109730;28;20040;-93
2023/10/13 04:48:51;;;;;;;10.38;5.20;;;;;;;13.19;100.00;99253.94;5124254;28;20035;-93
2023/10/13 04:54:10;;;;;;;9.13;4.68;;;;;;;13.45;100.00;99299.47;5109270;28;20039;-94
2023/10/13 05:00:54;;;;;;;14.55;4.65;;;;;;;13.52;100.00;99321.53;5190050;27;20432;-94
2023/10/13 05:06:10;;;;;;;11.35;4.07;;;;;;;13.03;100.00;99249.03;5104495;27;20394;-94
2023/10/13 06:38:39;;;;;;;13.05;5.80;;;;;;;14.24;100.00;99342.44;5135920;27;20383;-92
2023/10/13 06:41:06;;;;;;;14.50;5.70;;;;;;;14.61;100.00;99394.75;5101424;28;20055;-93
2023/10/13 06:43:32;;;;;;;13.80;5.88;;;;;;;14.73;100.00;99411.28;5114140;28;20037;-94
2023/10/13 06:46:00;;;;;;;12.80;6.53;;;;;;;14.36;100.00;99334.88;5080623;28;20056;-95
2023/10/13 06:48:33;;;;;;;13.52;5.75;;;;;;;14.67;100.00;99368.66;5082361;28;20032;-95
2023/10/13 06:51:04;;;;;;;11.35;5.25;;;;;;;14.69;100.00;99344.53;5084895;28;20044;-94
2023/10/13 06:53:36;;;;;;;15.23;5.43;;;;;;;14.88;100.00;99358.16;5077896;28;20064;-94
2023/10/13 06:56:07;;;;;;;13.48;5.95;;;;;;;15.17;100.00;99394.59;5078492;28;20041;-93
2023/10/13 06:58:32;;;;;;;17.67;6.78;;;;;;;15.31;100.00;99392.31;5078827;28;20071;-93
2023/10/13 07:01:01;;;;;;;19.50;5.78;;;;;;;15.36;100.00;99384.09;5079944;28;20057;-93
2023/10/13 07:03:27;;;;;;;18.58;5.60;;;;;;;15.82;100.00;99447.63;5079511;28;20037;-94
2023/10/13 07:05:53;;;;;;;14.57;6.32;;;;;;;15.50;100.00;99368.34;5079821;28;20111;-93
2023/10/13 07:08:19;;;;;;;16.65;6.13;;;;;;;15.72;100.00;99378.31;5080729;28;20098;-94
2023/10/13 07:10:51;;;;;;;14.32;6.00;;;;;;;15.99;100.00;99411.25;5079186;28;20037;-96
2023/10/13 07:13:19;;;;;;;14.98;6.78;;;;;;;16.39;100.00;99453.50;5078604;28;20052;-95
2023/10/13 07:15:45;;;;;;;13.40;5.80;;;;;;;16.13;100.00;99394.59;5078355;28;20522;-93
2023/10/13 07:18:13;;;;;;;12.75;5.82;;;;;;;16.20;100.00;99383.56;5079562;28;20045;-95
2023/10/13 07:20:43;;;;;;;12.30;6.78;;;;;;;16.38;100.00;99397.16;5079164;28;20075;-95
2023/10/13 07:23:11;;;;;;;17.45;6.63;;;;;;;16.44;100.00;99386.19;5078517;28;20029;-94
2023/10/13 07:25:40;;;;;;;11.93;5.78;;;;;;;16.74;100.00;99410.91;5078439;28;20041;-95
2023/10/13 07:28:08;;;;;;;11.15;5.82;;;;;;;16.71;100.00;99383.28;5077774;28;20040;-94
2023/10/13 07:33:37;;;;;;;17.60;8.20;;;;;;;16.97;100.00;99399.19;5154250;27;20371;-95
2023/10/13 07:36:15;;;;;;;14.73;6.38;;;;;;;17.27;100.00;99431.03;5113132;28;20060;-95
2023/10/13 07:38:42;;;;;;;15.70;6.35;;;;;;;17.16;100.00;99380.44;5100241;28;20101;-94
2023/10/13 07:41:08;;;;;;;14.48;6.63;;;;;;;17.49;100.00;99413.97;5140849;28;20091;-94
2023/10/13 07:43:37;;;;;;;16.23;6.32;;;;;;;17.69;100.00;99415.75;5109932;28;20044;-94
2023/10/13 07:46:09;;;;;;;14.52;6.25;;;;;;;17.81;100.00;99405.28;5098819;28;20040;-95
2023/10/13 07:48:37;;;;;;;12.48;6.03;;;;;;;17.91;100.00;99394.97;5099326;28;20101;-94
2023/10/13 07:51:06;;;;;;;12.45;5.40;;;;;;;17.85;100.00;99398.00;5099138;28;20565;-95
2023/10/13 07:53:39;;;;;;;12.30;5.47;;;;;;;17.84;100.00;99383.63;5099807;28;20067;-95
2023/10/13 07:56:05;;;;;;;11.50;5.25;;;;;;;18.12;100.00;99411.94;5098303;28;20055;-94
2023/10/13 07:58:32;;;;;;;13.98;6.15;;;;;;;18.54;100.00;99456.59;5099402;28;20101;-94
2023/10/13 08:07:12;;;;;;;12.82;6.28;;;;;;;17.60;100.00;99435.84;5143459;27;20425;-94
2023/10/13 08:09:41;;;;;;;12.50;6.35;;;;;;;18.19;100.00;99436.75;5141561;27;20031;-94
2023/10/13 08:12:11;;;;;;;10.25;5.07;;;;;;;18.27;100.00;99386.97;5119313;28;20036;-93
2023/10/13 08:14:40;;;;;;;11.23;5.10;;;;;;;18.67;100.00;99393.09;5139370;28;20036;-95
2023/10/13 08:17:10;;;;;;;12.15;5.82;;;;;;;18.88;100.00;99382.19;5140830;28;20497;-95
2023/10/13 08:19:39;;;;;;;13.27;5.45;;;;;;;19.26;100.00;99426.03;5138064;27;20522;-93
2023/10/13 08:22:23;;;;;;;13.02;5.10;;;;;;;19.56;100.00;99446.97;5133684;27;20031;-92
2023/10/13 08:27:36;;;;;;;13.73;6.07;;;;;;;19.57;100.00;99401.97;5155970;27;20739;-93
2023/10/13 08:33:24;;;;;;;12.13;5.75;;;;;;;19.59;100.00;99424.34;5086353;28;20394;-93
2023/10/13 08:38:51;;;;;;;11.18;4.97;;;;;;;19.86;97.78;99441.78;5147321;27;20716;-94
2023/10/13 08:44:04;;;;;;;13.00;4.55;;;;;;;19.63;100.00;99458.28;5124434;27;1395841;-93
2023/10/13 08:46:38;;;;;;;9.80;4.65;;;;;;;19.59;99.81;99443.22;5149831;27;20066;-95
2023/10/13 08:49:14;;;;;;;11.57;5.07;;;;;;;19.59;100.00;99437.81;5149336;27;20391;-92
2023/10/13 08:51:45;;;;;;;10.70;4.70;;;;;;;19.58;97.61;99428.88;5149706;27;20041;-93
2023/10/13 09:06:26;;;;;;;12.30;4.50;;;;;;;20.75;88.86;99435.03;5126460;27;20374;-96
2023/10/13 09:12:13;;;;;;;11.93;4.80;;;;;;;21.13;86.96;99432.78;5134895;27;20398;-94
2023/10/13 09:14:44;;;;;;;;;;;;;;;21.20;86.47;99450.34;5115369;28;20043;-94
2023/10/13 09:17:12;;;;;;;12.60;5.40;;;;;;;20.90;87.61;99407.09;5116286;28;19958;-95
2023/10/13 09:19:48;;;;;;;8.68;4.72;;;;;;;21.23;86.14;99423.16;5116226;28;20045;-95
2023/10/13 09:25:22;;;;;;;10.15;4.95;;;;;;;21.66;86.10;99435.88;5096182;27;1398202;-93
2023/10/13 09:27:51;;;;;;;11.68;5.05;;;;;;;21.70;85.62;99413.94;5125759;27;20110;-93
2023/10/13 09:30:20;;;;;;;13.93;5.65;;;;;;;21.33;85.17;99416.19;5121475;28;20039;-95
2023/10/13 09:32:48;;;;;;;16.48;5.65;;;;;;;21.68;84.80;99424.00;5123884;27;20126;-94
2023/10/13 09:35:18;;;;;;;12.70;5.35;;;;;;;21.78;83.55;99405.34;5123127;27;20043;-94
2023/10/13 09:37:46;;;;;;;14.30;5.00;;;;;;;21.86;83.30;99394.91;5122812;28;20088;-94
2023/10/13 09:43:20;;;;;;;9.10;4.82;;;;;;;22.07;84.32;99408.91;5105752;27;20384;-93
2023/10/13 09:48:52;;;;;;;12.68;5.15;;;;;;;22.24;82.59;99407.84;5132468;27;20891;-94
2023/10/13 09:51:21;;;;;;;10.40;5.32;;;;;;;22.15;81.65;99387.63;5112100;28;20040;-94
2023/10/13 09:53:53;;;;;;;11.98;5.50;;;;;;;21.78;83.32;99396.38;5115847;27;20043;-95
2023/10/13 09:56:25;;;;;;;12.52;5.72;;;;;;;22.22;82.59;99423.34;5115218;27;20102;-94
2023/10/13 09:59:00;;;;;;;10.15;5.13;;;;;;;22.37;79.97;99407.06;5112420;27;20047;-94
2023/10/13 10:01:32;;;;;;;10.98;4.82;;;;;;;22.54;79.68;99412.25;5114651;28;20059;-94
2023/10/13 10:04:09;;;;;;;11.10;5.05;;;;;;;22.50;81.31;99416.97;5112716;28;20063;-94
2023/10/13 10:09:37;;;;;;;12.82;5.07;;;;;;;22.64;79.74;99398.94;5114053;27;20373;-92
2023/10/13 10:12:27;;;;;;;11.82;5.40;;;;;;;22.83;77.89;99404.84;5096025;28;20048;-94
2023/10/13 10:15:06;;;;;;;17.00;5.82;;;;;;;22.93;78.60;99399.69;5093680;28;20106;-93
2023/10/13 10:17:39;;;;;;;14.32;6.20;;;;;;;23.08;76.93;99405.94;5091998;28;20062;-95
2023/10/13 10:20:11;;;;;;;11.15;5.47;;;;;;;22.99;76.07;99383.00;5095577;28;20404;-93
2023/10/13 10:22:44;;;;;;;10.35;5.28;;;;;;;23.02;76.27;99377.38;5091455;28;20415;-95
2023/10/13 10:25:34;;;;;;;10.75;5.07;;;;;;;23.10;75.70;99391.28;5095702;28;20040;-92
2023/10/13 10:27:58;;;;;;;11.02;5.25;;;;;;;22.87;75.52;99356.72;5082070;28;20125;-93
2023/10/13 10:30:25;;;;;;;12.98;5.45;;;;;;;22.96;75.62;99362.34;5093275;28;20048;-93
2023/10/13 10:32:59;;;;;;;9.55;4.78;;;;;;;22.93;75.32;99367.16;5092231;28;20082;-95
2023/10/13 10:35:29;;;;;;;18.15;5.03;;;;;;;22.95;74.47;99381.47;5095006;28;20040;-93
2023/10/13 10:38:03;;;;;;;10.40;4.78;;;;;;;22.96;74.25;99366.91;5096146;28;20036;-94
2023/10/13 10:40:42;;;;;;;11.25;4.45;;;;;;;22.75;72.71;99320.47;5096556;28;20035;-94
2023/10/13 10:43:08;;;;;;;8.68;4.45;;;;;;;22.98;71.07;99360.41;5089287;28;20044;-94
2023/10/13 10:45:35;;;;;;;10.73;4.50;;;;;;;22.92;69.73;99339.16;5093717;28;20036;-96
2023/10/13 10:48:16;;;;;;;10.52;3.72;;;;;;;23.04;65.97;99347.44;5096231;28;20031;-95
2023/10/13 10:50:43;;;;;;;13.32;3.80;;;;;;;22.88;67.98;99348.47;5093275;28;20127;-94
2023/10/13 10:53:09;;;;;;;12.43;4.10;;;;;;;22.82;68.29;99339.91;5094699;28;20040;-93
2023/10/13 10:55:37;;;;;;;8.13;3.70;;;;;;;23.15;65.99;99388.25;5094573;28;20036;-93
2023/10/13 10:58:06;;;;;;;13.25;4.13;;;;;;;23.23;66.69;99379.59;5093962;28;20034;-94
2023/10/13 11:03:37;;;;;;;9.50;4.43;;;;;;;23.08;67.90;99335.41;5144714;27;20363;-94
2023/10/13 11:06:04;;;;;;;9.48;3.92;;;;;;;23.25;68.47;99347.78;5108930;28;20040;-95
2023/10/13 11:08:31;;;;;;;9.57;4.40;;;;;;;23.11;66.25;99300.78;5117145;28;20040;-93
2023/10/13 11:10:58;;;;;;;5.85;3.65;;;;;;;23.24;65.17;99330.63;5111108;28;20107;-93
2023/10/13 11:13:24;;;;;;;7.55;3.63;;;;;;;23.28;64.89;99301.44;5108400;28;20049;-93
2023/10/13 11:15:50;;;;;;;7.70;4.03;;;;;;;23.54;64.21;99356.59;5119212;28;20032;-94
2023/10/13 11:18:20;;;;;;;12.93;4.15;;;;;;;23.42;63.36;99336.63;5115266;27;20031;-96
2023/10/13 11:20:56;;;;;;;8.45;4.07;;;;;;;23.21;63.53;99286.59;5113472;28;20158;-95
2023/10/13 11:23:25;;;;;;;7.70;3.63;;;;;;;23.50;61.59;99307.06;5122185;28;20044;-92
2023/10/13 11:25:58;;;;;;;8.70;4.05;;;;;;;23.42;59.70;99287.78;5108689;28;20578;-92
2023/10/13 11:28:28;;;;;;;9.75;3.90;;;;;;;23.51;59.19;99287.09;5118072;28;20043;-93
2023/10/13 11:30:58;;;;;;;;;;;;;;;23.89;58.36;99337.78;5109199;28;20046;-92
2023/10/13 11:33:27;;;;;;;9.52;3.75;;;;;;;23.83;57.89;99310.19;5117030;27;19915;-93
2023/10/13 11:35:55;;;;;;;7.78;3.25;;;;;;;24.05;57.60;99333.94;5108980;28;20047;-95
2023/10/13 11:38:26;;;;;;;7.72;3.30;;;;;;;23.68;58.11;99253.31;5103178;28;20036;-96
2023/10/13 11:44:06;;;;;;;8.38;5.05;;;;;;;24.26;56.97;99324.19;5106469;27;20378;-93
2023/10/13 11:54:14;;;;;;;8.23;3.35;;;;;;;24.44;54.85;99304.75;5116883;28;20040;-95
2023/10/13 12:04:51;;;;;;;6.95;3.45;;;;;;;24.57;52.73;99286.53;5025578;28;20105;-93
2023/10/13 12:15:25;;;;;;;7.50;3.28;;;;;;;24.78;51.24;99284.03;4973755;28;20035;-94
2023/10/13 12:18:14;;;;;;;8.15;3.58;;;;;;;24.43;50.77;99207.88;4901686;29;20048;-95
2023/10/13 12:21:08;;;;;;;7.20;3.10;;;;;;;24.96;50.59;99276.28;4897398;29;20056;-95
2023/10/13 12:23:36;;;;;;;5.90;3.25;;;;;;;24.89;49.70;99229.66;4920213;28;20101;-95
2023/10/13 12:26:06;;;;;;;7.57;3.20;;;;;;;25.02;49.49;99243.16;4996481;28;20118;-94
2023/10/13 12:28:37;;;;;;;13.18;3.88;;;;;;;24.67;49.26;99184.25;4978844;28;20042;-94
2023/10/13 12:31:07;;;;;;;7.78;3.40;;;;;;;25.20;49.27;99255.34;4986315;28;20447;-96
2023/10/13 12:33:40;;;;;;;9.05;3.28;;;;;;;25.03;48.21;99214.97;4992656;28;20140;-93
2023/10/13 12:36:11;;;;;;;7.47;2.85;;;;;;;25.31;46.19;99259.03;5050379;28;20091;-94
2023/10/13 12:51:07;;;;;;;5.30;3.22;;;;;;;25.14;47.03;99204.06;5140532;27;20385;-94
2023/10/13 12:53:33;;;;;;;8.85;3.80;;;;;;;25.32;46.73;99219.94;5097799;28;20138;-93
2023/10/13 12:55:59;;;;;;;8.20;3.58;;;;;;;25.35;46.34;99201.53;5101666;28;20075;-93
2023/10/13 12:58:26;;;;;;;8.90;3.58;;;;;;;25.23;46.40;99178.00;5111133;28;20596;-95
2023/10/13 13:01:01;;;;;;;11.00;3.47;;;;;;;25.37;46.70;99213.16;5099006;28;20040;-94
2023/10/13 13:03:29;;;;;;;6.65;3.15;;;;;;;25.17;46.81;99184.78;5103253;28;20036;-95
2023/10/13 13:05:56;;;;;;;7.53;3.55;;;;;;;25.42;47.27;99223.66;5105730;28;20063;-95
2023/10/13 13:08:22;;;;;;;9.70;3.35;;;;;;;25.19;46.43;99184.66;5104278;28;20040;-95
2023/10/13 13:10:48;;;;;;;9.07;3.25;;;;;;;24.87;46.41;99147.28;5100922;28;20036;-95
2023/10/13 13:13:16;;;;;;;6.93;3.42;;;;;;;25.27;47.54;99222.19;5100818;28;20067;-93
2023/10/13 13:15:42;;;;;;;7.10;3.50;;;;;;;25.18;47.44;99194.69;5097360;28;20028;-94
2023/10/13 13:18:12;;;;;;;5.72;3.08;;;;;;;25.28;47.67;99207.56;5095415;28;20044;-95
2023/10/13 13:20:39;;;;;;;8.43;3.20;;;;;;;25.31;46.86;99208.19;5097144;28;20044;-96
2023/10/13 13:23:07;;;;;;;7.68;3.13;;;;;;;25.36;47.52;99211.41;5098334;28;20052;-95
2023/10/13 13:25:33;;;;;;;7.18;3.55;;;;;;;25.07;47.37;99159.31;5103122;28;20047;-95
2023/10/13 13:28:05;;;;;;;9.60;3.55;;;;;;;25.27;47.24;99174.03;5098104;28;20052;-95
2023/10/13 13:30:34;;;;;;;9.10;3.60;;;;;;;25.18;46.81;99153.84;5096037;28;20044;-94
2023/10/13 13:33:04;;;;;;;;;;;;;;;25.48;47.52;99195.06;5097558;28;20036;-94
2023/10/13 13:35:34;;;;;;;6.72;2.88;;;;;;;25.36;48.01;99180.59;5097440;28;19916;-95
2023/10/13 13:38:09;;;;;;;9.82;3.30;;;;;;;25.43;47.21;99179.09;5096763;28;20066;-95
2023/10/13 13:40:38;;;;;;;10.93;4.05;;;;;;;25.44;47.17;99169.94;5099986;28;20134;-93
2023/10/13 13:43:04;;;;;;;8.07;3.25;;;;;;;25.54;47.18;99184.50;5096251;28;20151;-95
2023/10/13 13:45:32;;;;;;;13.60;3.70;;;;;;;25.34;46.45;99158.06;5096533;28;20072;-94
2023/10/13 13:47:58;;;;;;;6.07;3.20;;;;;;;25.56;46.42;99163.47;5099128;28;20128;-95
2023/10/13 13:50:28;;;;;;;7.35;2.90;;;;;;;25.36;46.71;99120.72;5097982;28;20056;-94
2023/10/13 13:52:56;;;;;;;6.28;3.38;;;;;;;25.30;46.40;99119.34;5101228;28;20131;-94
2023/10/13 13:55:23;;;;;;;6.93;3.80;;;;;;;25.28;46.70;99112.31;5097944;28;20465;-94
2023/10/13 13:57:50;;;;;;;7.95;3.30;;;;;;;25.50;47.39;99155.81;5097613;28;20094;-93
2023/10/13 14:00:20;;;;;;;10.13;3.35;;;;;;;25.60;47.58;99167.69;5099178;28;20043;-95
2023/10/13 14:02:47;;;;;;;9.93;4.00;;;;;;;25.60;47.29;99156.78;5089646;28;20043;-94
2023/10/13 14:05:15;;;;;;;11.10;3.25;;;;;;;25.57;46.83;99153.47;5084677;28;20040;-95
2023/10/13 14:07:42;;;;;;;10.50;3.25;;;;;;;25.47;46.58;99133.44;5091114;28;20092;-93
2023/10/13 14:10:16;;;;;;;8.55;3.10;;;;;;;25.56;46.59;99168.06;5085889;28;20082;-94
2023/10/13 14:12:42;;;;;;;7.10;3.78;;;;;;;25.49;47.25;99154.09;5092240;28;20044;-94
2023/10/13 14:15:43;;;;;;;6.28;3.20;;;;;;;25.21;47.25;99120.97;5103400;28;20127;-96
2023/10/13 14:18:30;;;;;;;9.02;3.47;;;;;;;25.50;47.46;99150.34;5072785;28;20095;-94
2023/10/13 14:20:56;;;;;;;7.43;3.05;;;;;;;25.39;47.82;99137.66;5112149;28;20043;-94
2023/10/13 14:23:22;;;;;;;8.02;3.38;;;;;;;25.25;47.06;99107.13;5098530;28;20033;-95
2023/10/13 14:25:51;;;;;;;7.78;3.22;;;;;;;25.57;46.93;99165.22;5082394;28;20048;-95
2023/10/13 14:28:18;;;;;;;10.57;3.85;;;;;;;25.28;46.77;99096.81;5095353;28;20040;-95
2023/10/13 14:30:46;;;;;;;7.13;2.72;;;;;;;25.39;47.53;99115.88;5088410;28;20066;-95
2023/10/13 14:33:12;;;;;;;7.82;4.10;;;;;;;25.43;46.38;99116.47;5095170;28;20093;-94
2023/10/13 14:36:19;;;;;;;6.32;3.72;;;;;;;25.68;45.93;99161.59;5091545;28;20043;-94
2023/10/13 14:38:49;;;;;;;7.50;3.40;;;;;;;25.56;45.67;99138.97;5102995;28;20015;-96
2023/10/13 14:41:17;;;;;;;10.52;3.22;;;;;;;25.41;45.90;99097.53;5090072;28;20059;-95
2023/10/13 14:43:47;;;;;;;8.13;3.80;;;;;;;25.57;47.04;99115.34;5105704;28;20067;-95
2023/10/13 14:46:15;;;;;;;7.38;3.35;;;;;;;25.65;45.94;99137.31;5092870;28;20044;-90
2023/10/13 14:48:41;;;;;;;5.93;3.40;;;;;;;25.84;45.64;99155.72;5081973;28;20094;-89
2023/10/13 14:51:09;;;;;;;7.38;3.75;;;;;;;25.56;45.11;99122.63;5107248;28;20419;-92
2023/10/13 14:53:35;;;;;;;8.45;3.45;;;;;;;25.63;45.63;99120.25;5084640;28;20039;-93
2023/10/13 14:56:05;;;;;;;6.30;2.78;;;;;;;25.69;45.33;99146.97;5083066;28;20050;-91
2023/10/13 14:58:30;;;;;;;6.85;2.85;;;;;;;25.56;46.48;99125.34;5099920;28;20140;-92
2023/10/13 15:00:58;;;;;;;8.20;2.42;;;;;;;25.53;45.98;99122.88;5082226;28;20489;-91
2023/10/13 15:03:25;;;;;;;11.68;2.92;;;;;;;25.57;46.55;99127.09;5093857;28;20095;-91
2023/10/13 15:05:55;;;;;;;5.75;3.15;;;;;;;25.51;46.29;99140.34;5091539;28;20042;-92
2023/10/13 15:08:20;;;;;;;7.53;3.17;;;;;;;25.49;46.87;99129.59;5089483;27;20064;-91
2023/10/13 15:10:46;;;;;;;10.65;2.63;;;;;;;25.56;46.21;99124.50;5101776;28;20032;-91
2023/10/13 15:13:12;;;;;;;10.07;2.78;;;;;;;25.47;46.76;99114.38;5096138;27;20363;-92
2023/10/13 15:15:39;;;;;;;4.88;3.67;;;;;;;25.60;46.83;99140.44;5102054;27;20054;-91
2023/10/13 15:18:11;;;;;;;11.65;3.33;;;;;;;25.36;46.50;99107.09;5100099;27;20138;-89
2023/10/13 15:20:43;;;;;;;6.03;2.60;;;;;;;25.52;47.00;99137.47;5101580;27;20040;-91
2023/10/13 15:23:14;;;;;;;5.65;2.90;;;;;;;25.48;46.76;99140.59;5104230;27;20073;-91
2023/10/13 15:25:49;;;;;;;8.13;3.00;;;;;;;25.42;47.03;99136.53;5134049;27;20051;-91
2023/10/13 15:28:18;;;;;;;5.47;2.78;;;;;;;25.16;46.81;99106.00;5099684;28;20566;-89
2023/10/13 15:30:45;;;;;;;;;;;;;;;25.32;46.89;99127.38;5098080;28;20083;-89